Helene — V7VF9 — position and weather

sailwx.info

Track history (hours):
 
Tides and Currents Weather Stations Pressure Air Temp Water Temp Dewpoint Dewpoint Depression Visibility Wind Speed Wind Dir Waves Ship Positions

Helene

Last reported at 2016-Dec-10 17:03 UTC. Time now 2016-Dec-10 21:45 UTC.
Position S 27°04' W 048°23'.

Length 207 m; draft 9.8 m.

Type: Cargo ship. MMSI: 538006866.

Date/timePositionNaut miles runAvg speedWind from/ knotsBaromVisibWave heightAir tempDewpointWater temp
2016-Dec-10 17:03S 27°04' W 048°23'1212.0
2016-Dec-10 16:05S 27°13' W 048°13'611.9
2016-Dec-10 15:33S 27°19' W 048°13'1313.2
2016-Dec-10 14:33S 27°32' W 048°14'1313.3
2016-Dec-10 13:33S 27°45' W 048°15'1613.1
2016-Dec-10 12:18S 28°01' W 048°18'  
2016-Dec-06 20:19S 34°47' W 057°30'2011.3
2016-Dec-06 18:33S 34°42' W 057°54'1414.1
2016-Dec-06 17:33S 34°37' W 058°10'1010.2
2016-Dec-06 16:33S 34°35' W 058°22'0 0.0
2016-Dec-06 11:30S 34°35' W 058°22'0 0.0
2016-Dec-06 01:09S 34°35' W 058°22'0 0.0
2016-Dec-06 00:21S 34°35' W 058°22'0 0.0
2016-Dec-05 20:21S 34°35' W 058°22'0 0.0
2016-Dec-05 19:33S 34°35' W 058°22'  
2016-Nov-30 19:33S 24°49' W 046°42'1818.4
2016-Nov-30 18:34S 24°35' W 046°29'1818.4
2016-Nov-30 17:34S 24°17' W 046°25'  
Track history (hours):
 
Tides and Currents Weather Stations Pressure Air Temp Water Temp Dewpoint Dewpoint Depression Visibility Wind Speed Wind Dir Waves Ship Positions

Helene

Last reported at 2016-Dec-10 17:03 UTC. Time now 2016-Dec-10 21:45 UTC.
Position S 27°04' W 048°23'.

Length 207 m; draft 9.8 m.

Type: Cargo ship. MMSI: 538006866.

Date/timePositionNaut miles runAvg speedWind from/ knotsBaromVisibWave heightAir tempDewpointWater temp
2016-Dec-10 17:03S 27°04' W 048°23'1212.0
2016-Dec-10 16:05S 27°13' W 048°13'611.9
2016-Dec-10 15:33S 27°19' W 048°13'1313.2
2016-Dec-10 14:33S 27°32' W 048°14'1313.3
2016-Dec-10 13:33S 27°45' W 048°15'1613.1
2016-Dec-10 12:18S 28°01' W 048°18'  
2016-Dec-06 20:19S 34°47' W 057°30'2011.3
2016-Dec-06 18:33S 34°42' W 057°54'1414.1
2016-Dec-06 17:33S 34°37' W 058°10'1010.2
2016-Dec-06 16:33S 34°35' W 058°22'0 0.0
2016-Dec-06 11:30S 34°35' W 058°22'0 0.0
2016-Dec-06 01:09S 34°35' W 058°22'0 0.0
2016-Dec-06 00:21S 34°35' W 058°22'0 0.0
2016-Dec-05 20:21S 34°35' W 058°22'0 0.0
2016-Dec-05 19:33S 34°35' W 058°22'  
2016-Nov-30 19:33S 24°49' W 046°42'1818.4
2016-Nov-30 18:34S 24°35' W 046°29'1818.4
2016-Nov-30 17:34S 24°17' W 046°25'  

Dump ship's entire track history